Terminal Aerodrome Forecast
Issued by NWS

Home | Current Version | Previous Version | Text Only | Print | Product List | Glossary On
Versions: 1 2 3 4 5 6 7 8 9 10 11 12 13 14 15 16 17 18 19 20 21 22 23 24
000
FTUS41 KPBZ 252100 AAB
TAFHLG
TAF AMD
KHLG 252127Z 2521/2618 24014G22KT P6SM FEW035
     FM260400 26008G16KT P6SM SKC
     FM260800 30010KT P6SM SKC
     FM261400 28012G20KT P6SM FEW040=

USA.gov is the U.S. government's official web portal to all federal, state and local government web resources and services.